Ewa Beach, HI (96706)

10:23 PM HST on December 07, 2016 (GMT -1000)
Kapolei | | Change Station

Elev 108 ft 21.35 °N, 158.06 °W | Updated 2 minutes ago

Clear
Clear
74.0 °F
Feels Like 74 °F
N
1.0
Wind Variable Wind from NNE
Gusts 5.0 mph

Today
High -- | Low -- °F
--% Chance of Precip.
Yesterday
High -- | Low -- °F
Precip. -- in
Pressure 29.95 in
Visibility 10.0 miles
Clouds Clear
Heat Index 74 °F
Dew Point 68 °F
Humidity 83%
Rainfall 0.00 in
Snow Depth Not available.
6:57 AM 5:50 PM
First Quarter, 61% visible
METAR PHJR 080753Z 05003KT 10SM CLR 22/19 A2993 RMK AO2 SLP140 T02220194
Pressure 29.95 in
Visibility 10.0 miles
Clouds Clear
Heat Index 74 °F
Dew Point 68 °F
Humidity 83%
Rainfall 0.00 in
Snow Depth Not available.
6:57 AM 5:50 PM
First Quarter, 61% visible
METAR PHJR 080753Z 05003KT 10SM CLR 22/19 A2993 RMK AO2 SLP140 T02220194

10-Day Weather Forecast

Almanac

Astronomy

Dec. 07, 2016 Rise Set
Actual Time
Civil Twilight
Nautical Twilight
Astronomical Twilight
Moon
Length of Visible Light
Length of Day
Tomorrow will be .
, % of the Moon is Illuminated

Today's Extremes

State Highs State Lows

Community

WunderPhotos

Upload Photos

1,956,259 photos uploaded!

WunderBlog® & News

Nearby

Air Quality

  Air Quality AQ Index Pollutant
Not available.

Snow Depth

Station Depth Elevation

Earthquake Activity

City Distance Mag. Time & Date
Minimum magnitude displayed is 2.5.

Coastal Water Temperatures

Place Temperature

Stations

Nearby Weather Stations

Station Location Temp. Windchill Dew Point Humidity Wind Precip. Elev Updated Type
                   

Watches & Warnings

There are currently no watches in effect.